sensor_id;sensor_type;location;lat;lon;timestamp;temperature;humidity
13673;DHT22;6909;52.202;9.876;2023-06-22T00:00:39;17.20;99.90
13673;DHT22;6909;52.202;9.876;2023-06-22T00:03:07;17.20;1.00
13673;DHT22;6909;52.202;9.876;2023-06-22T00:05:34;17.10;99.90
13673;DHT22;6909;52.202;9.876;2023-06-22T00:08:02;17.10;99.90
13673;DHT22;6909;52.202;9.876;2023-06-22T00:10:29;17.00;1.00
13673;DHT22;6909;52.202;9.876;2023-06-22T00:12:57;17.10;1.00
13673;DHT22;6909;52.202;9.876;2023-06-22T00:15:24;17.00;1.00
13673;DHT22;6909;52.202;9.876;2023-06-22T00:17:51;17.00;1.00
13673;DHT22;6909;52.202;9.876;2023-06-22T00:20:18;17.00;1.00
13673;DHT22;6909;52.202;9.876;2023-06-22T00:22:44;16.90;1.00
13673;DHT22;6909;52.202;9.876;2023-06-22T00:25:11;16.90;1.00
13673;DHT22;6909;52.202;9.876;2023-06-22T00:27:38;16.80;1.00
13673;DHT22;6909;52.202;9.876;2023-06-22T00:30:07;16.90;99.90
13673;DHT22;6909;52.202;9.876;2023-06-22T00:32:34;16.90;1.00
13673;DHT22;6909;52.202;9.876;2023-06-22T00:35:01;16.90;1.00
13673;DHT22;6909;52.202;9.876;2023-06-22T00:37:28;17.00;1.00
13673;DHT22;6909;52.202;9.876;2023-06-22T00:39:55;17.00;1.00
13673;DHT22;6909;52.202;9.876;2023-06-22T00:42:22;17.00;99.90
13673;DHT22;6909;52.202;9.876;2023-06-22T00:44:48;17.00;99.90
13673;DHT22;6909;52.202;9.876;2023-06-22T00:47:18;17.00;1.00
13673;DHT22;6909;52.202;9.876;2023-06-22T00:49:45;16.90;99.90
13673;DHT22;6909;52.202;9.876;2023-06-22T00:52:14;16.80;1.00
13673;DHT22;6909;52.202;9.876;2023-06-22T00:54:46;16.90;1.00
13673;DHT22;6909;52.202;9.876;2023-06-22T00:57:14;17.00;1.00
13673;DHT22;6909;52.202;9.876;2023-06-22T00:59:42;17.00;1.00
13673;DHT22;6909;52.202;9.876;2023-06-22T01:02:09;17.00;1.00
13673;DHT22;6909;52.202;9.876;2023-06-22T01:04:38;17.00;1.00
13673;DHT22;6909;52.202;9.876;2023-06-22T01:07:12;17.00;1.00
13673;DHT22;6909;52.202;9.876;2023-06-22T01:09:49;17.00;1.00
13673;DHT22;6909;52.202;9.876;2023-06-22T01:12:18;16.90;1.00
13673;DHT22;6909;52.202;9.876;2023-06-22T01:14:52;16.70;99.90
13673;DHT22;6909;52.202;9.876;2023-06-22T01:17:22;16.50;99.90
13673;DHT22;6909;52.202;9.876;2023-06-22T01:19:54;16.30;9.30
13673;DHT22;6909;52.202;9.876;2023-06-22T01:22:23;16.10;99.90
13673;DHT22;6909;52.202;9.876;2023-06-22T01:24:57;16.00;1.00
13673;DHT22;6909;52.202;9.876;2023-06-22T01:27:33;15.90;99.90
13673;DHT22;6909;52.202;9.876;2023-06-22T01:30:05;15.90;1.00
13673;DHT22;6909;52.202;9.876;2023-06-22T01:32:34;15.90;1.00
13673;DHT22;6909;52.202;9.876;2023-06-22T01:35:04;16.10;99.90
13673;DHT22;6909;52.202;9.876;2023-06-22T01:37:32;16.20;99.90
13673;DHT22;6909;52.202;9.876;2023-06-22T01:40:00;16.30;99.90
13673;DHT22;6909;52.202;9.876;2023-06-22T01:42:28;16.20;99.90
13673;DHT22;6909;52.202;9.876;2023-06-22T01:44:56;16.20;99.90
13673;DHT22;6909;52.202;9.876;2023-06-22T01:47:25;16.30;99.90
13673;DHT22;6909;52.202;9.876;2023-06-22T01:49:53;16.40;99.90
13673;DHT22;6909;52.202;9.876;2023-06-22T01:52:20;16.60;99.90
13673;DHT22;6909;52.202;9.876;2023-06-22T01:54:47;16.50;99.90
13673;DHT22;6909;52.202;9.876;2023-06-22T01:57:14;16.40;99.90
13673;DHT22;6909;52.202;9.876;2023-06-22T01:59:48;16.30;99.90
13673;DHT22;6909;52.202;9.876;2023-06-22T02:02:19;16.30;99.90
13673;DHT22;6909;52.202;9.876;2023-06-22T02:04:57;16.50;99.90
13673;DHT22;6909;52.202;9.876;2023-06-22T02:07:29;16.60;99.90
13673;DHT22;6909;52.202;9.876;2023-06-22T02:09:59;16.70;99.90
13673;DHT22;6909;52.202;9.876;2023-06-22T02:12:28;16.70;99.90
13673;DHT22;6909;52.202;9.876;2023-06-22T02:14:56;16.60;99.90
13673;DHT22;6909;52.202;9.876;2023-06-22T02:17:24;16.50;99.90
13673;DHT22;6909;52.202;9.876;2023-06-22T02:19:53;16.40;99.90
13673;DHT22;6909;52.202;9.876;2023-06-22T02:22:19;16.20;99.90
13673;DHT22;6909;52.202;9.876;2023-06-22T02:24:46;15.90;99.90
13673;DHT22;6909;52.202;9.876;2023-06-22T02:27:13;15.70;99.90
13673;DHT22;6909;52.202;9.876;2023-06-22T02:29:40;15.60;99.90
13673;DHT22;6909;52.202;9.876;2023-06-22T02:32:07;15.60;99.90
13673;DHT22;6909;52.202;9.876;2023-06-22T02:34:34;15.60;99.90
13673;DHT22;6909;52.202;9.876;2023-06-22T02:37:03;15.50;99.90
13673;DHT22;6909;52.202;9.876;2023-06-22T02:39:30;15.60;99.90
13673;DHT22;6909;52.202;9.876;2023-06-22T02:41:57;15.60;99.90
13673;DHT22;6909;52.202;9.876;2023-06-22T02:44:24;15.60;99.90
13673;DHT22;6909;52.202;9.876;2023-06-22T02:46:50;15.60;99.90
13673;DHT22;6909;52.202;9.876;2023-06-22T02:49:17;15.70;99.90
13673;DHT22;6909;52.202;9.876;2023-06-22T02:51:46;15.60;99.90
13673;DHT22;6909;52.202;9.876;2023-06-22T02:54:14;15.50;99.90
13673;DHT22;6909;52.202;9.876;2023-06-22T02:56:41;15.40;99.90
13673;DHT22;6909;52.202;9.876;2023-06-22T02:59:09;15.40;99.90
13673;DHT22;6909;52.202;9.876;2023-06-22T03:01:36;15.50;99.90
13673;DHT22;6909;52.202;9.876;2023-06-22T03:04:05;15.60;99.90
13673;DHT22;6909;52.202;9.876;2023-06-22T03:06:32;15.60;99.90
13673;DHT22;6909;52.202;9.876;2023-06-22T03:09:00;15.60;99.90
13673;DHT22;6909;52.202;9.876;2023-06-22T03:11:28;15.60;99.90
13673;DHT22;6909;52.202;9.876;2023-06-22T03:13:55;15.70;99.90
13673;DHT22;6909;52.202;9.876;2023-06-22T03:16:21;15.80;99.90
13673;DHT22;6909;52.202;9.876;2023-06-22T03:18:48;16.10;99.90
13673;DHT22;6909;52.202;9.876;2023-06-22T03:21:15;16.30;99.90
13673;DHT22;6909;52.202;9.876;2023-06-22T03:23:42;16.30;99.90
13673;DHT22;6909;52.202;9.876;2023-06-22T03:26:09;16.30;99.90
13673;DHT22;6909;52.202;9.876;2023-06-22T03:28:37;16.50;99.90
13673;DHT22;6909;52.202;9.876;2023-06-22T03:31:04;16.60;99.90
13673;DHT22;6909;52.202;9.876;2023-06-22T03:33:32;16.60;99.90
13673;DHT22;6909;52.202;9.876;2023-06-22T03:35:58;16.60;99.90
13673;DHT22;6909;52.202;9.876;2023-06-22T03:38:25;16.70;99.90
13673;DHT22;6909;52.202;9.876;2023-06-22T03:40:52;16.80;99.90
13673;DHT22;6909;52.202;9.876;2023-06-22T03:43:18;16.80;99.90
13673;DHT22;6909;52.202;9.876;2023-06-22T03:45:46;16.90;99.90
13673;DHT22;6909;52.202;9.876;2023-06-22T03:48:13;17.00;99.90
13673;DHT22;6909;52.202;9.876;2023-06-22T03:50:40;16.90;99.90
13673;DHT22;6909;52.202;9.876;2023-06-22T03:53:06;17.00;99.90
13673;DHT22;6909;52.202;9.876;2023-06-22T03:55:34;17.10;99.90
13673;DHT22;6909;52.202;9.876;2023-06-22T03:58:01;17.10;99.90
13673;DHT22;6909;52.202;9.876;2023-06-22T04:00:31;17.30;99.90
13673;DHT22;6909;52.202;9.876;2023-06-22T04:02:59;17.40;99.90
13673;DHT22;6909;52.202;9.876;2023-06-22T04:05:26;17.40;99.90
13673;DHT22;6909;52.202;9.876;2023-06-22T04:07:53;17.50;99.90
13673;DHT22;6909;52.202;9.876;2023-06-22T04:10:19;17.60;99.90
13673;DHT22;6909;52.202;9.876;2023-06-22T04:12:47;17.70;99.90
13673;DHT22;6909;52.202;9.876;2023-06-22T04:15:14;17.90;99.90
13673;DHT22;6909;52.202;9.876;2023-06-22T04:17:41;17.90;99.90
13673;DHT22;6909;52.202;9.876;2023-06-22T04:20:09;18.10;99.90
13673;DHT22;6909;52.202;9.876;2023-06-22T04:22:36;18.10;99.90
13673;DHT22;6909;52.202;9.876;2023-06-22T04:25:06;18.20;99.90
13673;DHT22;6909;52.202;9.876;2023-06-22T04:27:33;18.20;99.90
13673;DHT22;6909;52.202;9.876;2023-06-22T04:30:03;18.20;99.90
13673;DHT22;6909;52.202;9.876;2023-06-22T04:32:30;18.10;99.90
13673;DHT22;6909;52.202;9.876;2023-06-22T04:34:56;18.20;99.90
13673;DHT22;6909;52.202;9.876;2023-06-22T04:37:24;18.20;99.90
13673;DHT22;6909;52.202;9.876;2023-06-22T04:39:51;18.20;99.90
13673;DHT22;6909;52.202;9.876;2023-06-22T04:42:18;18.20;99.90
13673;DHT22;6909;52.202;9.876;2023-06-22T04:44:45;18.30;99.90
13673;DHT22;6909;52.202;9.876;2023-06-22T04:47:11;18.30;99.90
13673;DHT22;6909;52.202;9.876;2023-06-22T04:49:38;18.30;99.90
13673;DHT22;6909;52.202;9.876;2023-06-22T04:52:07;18.40;99.90
13673;DHT22;6909;52.202;9.876;2023-06-22T04:54:37;18.50;99.90
13673;DHT22;6909;52.202;9.876;2023-06-22T04:57:05;18.60;99.90
13673;DHT22;6909;52.202;9.876;2023-06-22T04:59:35;18.70;99.90
13673;DHT22;6909;52.202;9.876;2023-06-22T05:02:05;18.80;99.90
13673;DHT22;6909;52.202;9.876;2023-06-22T05:04:32;18.90;99.90
13673;DHT22;6909;52.202;9.876;2023-06-22T05:07:01;19.10;99.90
13673;DHT22;6909;52.202;9.876;2023-06-22T05:09:29;19.20;99.90
13673;DHT22;6909;52.202;9.876;2023-06-22T05:11:57;20.00;99.90
13673;DHT22;6909;52.202;9.876;2023-06-22T05:14:25;20.80;99.90
13673;DHT22;6909;52.202;9.876;2023-06-22T05:16:52;21.20;99.90
13673;DHT22;6909;52.202;9.876;2023-06-22T05:19:19;21.00;99.90
13673;DHT22;6909;52.202;9.876;2023-06-22T05:21:45;20.80;99.90
13673;DHT22;6909;52.202;9.876;2023-06-22T05:24:12;20.70;99.90
13673;DHT22;6909;52.202;9.876;2023-06-22T05:26:39;20.60;99.90
13673;DHT22;6909;52.202;9.876;2023-06-22T05:29:07;20.20;99.90
13673;DHT22;6909;52.202;9.876;2023-06-22T05:31:33;19.90;99.90
13673;DHT22;6909;52.202;9.876;2023-06-22T05:34:00;19.80;99.90
13673;DHT22;6909;52.202;9.876;2023-06-22T05:36:27;19.80;99.90
13673;DHT22;6909;52.202;9.876;2023-06-22T05:38:56;19.80;99.90
13673;DHT22;6909;52.202;9.876;2023-06-22T05:41:22;20.00;99.90
13673;DHT22;6909;52.202;9.876;2023-06-22T05:43:49;19.90;99.90
13673;DHT22;6909;52.202;9.876;2023-06-22T05:46:18;20.00;99.90
13673;DHT22;6909;52.202;9.876;2023-06-22T05:48:45;20.20;99.90
13673;DHT22;6909;52.202;9.876;2023-06-22T05:51:11;20.30;99.90
13673;DHT22;6909;52.202;9.876;2023-06-22T05:53:38;20.30;99.90
13673;DHT22;6909;52.202;9.876;2023-06-22T05:56:05;20.70;99.90
13673;DHT22;6909;52.202;9.876;2023-06-22T05:58:31;20.70;99.90
13673;DHT22;6909;52.202;9.876;2023-06-22T06:00:58;20.90;99.90
13673;DHT22;6909;52.202;9.876;2023-06-22T06:03:27;21.00;99.90
13673;DHT22;6909;52.202;9.876;2023-06-22T06:05:54;21.10;99.90
13673;DHT22;6909;52.202;9.876;2023-06-22T06:08:20;21.40;99.90
13673;DHT22;6909;52.202;9.876;2023-06-22T06:10:47;21.80;99.90
13673;DHT22;6909;52.202;9.876;2023-06-22T06:13:14;22.00;99.90
13673;DHT22;6909;52.202;9.876;2023-06-22T06:15:40;22.20;99.90
13673;DHT22;6909;52.202;9.876;2023-06-22T06:18:07;22.30;99.90
13673;DHT22;6909;52.202;9.876;2023-06-22T06:20:35;22.20;99.90
13673;DHT22;6909;52.202;9.876;2023-06-22T06:23:02;22.20;1.00
13673;DHT22;6909;52.202;9.876;2023-06-22T06:25:29;22.10;1.00
13673;DHT22;6909;52.202;9.876;2023-06-22T06:27:55;22.10;1.00
13673;DHT22;6909;52.202;9.876;2023-06-22T06:30:22;22.20;99.90
13673;DHT22;6909;52.202;9.876;2023-06-22T06:32:49;22.30;99.90
13673;DHT22;6909;52.202;9.876;2023-06-22T06:35:16;22.00;1.00
13673;DHT22;6909;52.202;9.876;2023-06-22T06:37:47;22.10;1.00
13673;DHT22;6909;52.202;9.876;2023-06-22T06:40:15;22.30;1.00
13673;DHT22;6909;52.202;9.876;2023-06-22T06:42:43;22.30;1.00
13673;DHT22;6909;52.202;9.876;2023-06-22T06:45:11;22.40;1.00
13673;DHT22;6909;52.202;9.876;2023-06-22T06:47:38;22.30;99.90
13673;DHT22;6909;52.202;9.876;2023-06-22T06:50:06;22.20;1.00
13673;DHT22;6909;52.202;9.876;2023-06-22T06:52:33;22.20;99.90
13673;DHT22;6909;52.202;9.876;2023-06-22T06:55:01;22.20;65.10
13673;DHT22;6909;52.202;9.876;2023-06-22T06:57:29;22.30;1.00
13673;DHT22;6909;52.202;9.876;2023-06-22T06:59:56;22.60;1.00
13673;DHT22;6909;52.202;9.876;2023-06-22T07:02:23;22.80;1.00
13673;DHT22;6909;52.202;9.876;2023-06-22T07:04:50;22.80;99.90
13673;DHT22;6909;52.202;9.876;2023-06-22T07:07:17;23.00;1.00
13673;DHT22;6909;52.202;9.876;2023-06-22T07:09:44;23.20;1.00
13673;DHT22;6909;52.202;9.876;2023-06-22T07:12:12;23.20;53.10
13673;DHT22;6909;52.202;9.876;2023-06-22T07:14:38;23.20;1.00
13673;DHT22;6909;52.202;9.876;2023-06-22T07:17:30;23.50;1.00
13673;DHT22;6909;52.202;9.876;2023-06-22T07:19:57;24.00;99.90
13673;DHT22;6909;52.202;9.876;2023-06-22T07:22:23;23.50;1.00
13673;DHT22;6909;52.202;9.876;2023-06-22T07:24:50;23.60;1.00
13673;DHT22;6909;52.202;9.876;2023-06-22T07:27:18;23.60;99.90
13673;DHT22;6909;52.202;9.876;2023-06-22T07:29:45;23.50;1.00
13673;DHT22;6909;52.202;9.876;2023-06-22T07:32:12;23.50;1.00
13673;DHT22;6909;52.202;9.876;2023-06-22T07:34:39;23.70;1.00
13673;DHT22;6909;52.202;9.876;2023-06-22T07:37:06;23.40;1.00
13673;DHT22;6909;52.202;9.876;2023-06-22T07:39:33;22.70;99.90
13673;DHT22;6909;52.202;9.876;2023-06-22T07:42:00;22.70;99.90
13673;DHT22;6909;52.202;9.876;2023-06-22T07:44:28;22.40;1.00
13673;DHT22;6909;52.202;9.876;2023-06-22T07:46:54;22.60;1.00
13673;DHT22;6909;52.202;9.876;2023-06-22T07:49:21;22.40;1.00
13673;DHT22;6909;52.202;9.876;2023-06-22T07:51:48;22.50;1.00
13673;DHT22;6909;52.202;9.876;2023-06-22T07:54:14;22.60;68.50
13673;DHT22;6909;52.202;9.876;2023-06-22T07:56:42;22.60;99.90
13673;DHT22;6909;52.202;9.876;2023-06-22T07:59:09;22.60;99.90
13673;DHT22;6909;52.202;9.876;2023-06-22T08:01:37;22.60;1.00
13673;DHT22;6909;52.202;9.876;2023-06-22T08:04:04;22.60;1.00
13673;DHT22;6909;52.202;9.876;2023-06-22T08:06:31;22.60;1.00
13673;DHT22;6909;52.202;9.876;2023-06-22T08:08:58;22.70;1.00
13673;DHT22;6909;52.202;9.876;2023-06-22T08:11:25;22.80;1.00
13673;DHT22;6909;52.202;9.876;2023-06-22T08:13:51;22.90;1.00
13673;DHT22;6909;52.202;9.876;2023-06-22T08:16:21;22.90;1.00
13673;DHT22;6909;52.202;9.876;2023-06-22T08:18:49;22.60;1.00
13673;DHT22;6909;52.202;9.876;2023-06-22T08:21:16;22.90;1.00
13673;DHT22;6909;52.202;9.876;2023-06-22T08:23:42;22.60;1.00
13673;DHT22;6909;52.202;9.876;2023-06-22T08:26:09;22.70;1.00
13673;DHT22;6909;52.202;9.876;2023-06-22T08:28:36;22.90;1.00
13673;DHT22;6909;52.202;9.876;2023-06-22T08:31:03;22.90;1.00
13673;DHT22;6909;52.202;9.876;2023-06-22T08:33:29;22.90;1.00
13673;DHT22;6909;52.202;9.876;2023-06-22T08:35:58;22.80;1.00
13673;DHT22;6909;52.202;9.876;2023-06-22T08:38:25;22.90;99.90
13673;DHT22;6909;52.202;9.876;2023-06-22T08:40:51;22.70;99.90
13673;DHT22;6909;52.202;9.876;2023-06-22T08:43:18;22.60;99.90
13673;DHT22;6909;52.202;9.876;2023-06-22T08:45:45;22.60;99.90
13673;DHT22;6909;52.202;9.876;2023-06-22T08:48:11;22.60;99.90
13673;DHT22;6909;52.202;9.876;2023-06-22T08:50:38;22.80;99.90
13673;DHT22;6909;52.202;9.876;2023-06-22T08:53:07;22.70;52.50
13673;DHT22;6909;52.202;9.876;2023-06-22T08:55:33;22.80;35.10
13673;DHT22;6909;52.202;9.876;2023-06-22T08:58:00;22.60;29.70
13673;DHT22;6909;52.202;9.876;2023-06-22T09:00:27;22.40;99.90
13673;DHT22;6909;52.202;9.876;2023-06-22T09:02:58;22.60;99.90
13673;DHT22;6909;52.202;9.876;2023-06-22T09:05:24;22.60;1.00
13673;DHT22;6909;52.202;9.876;2023-06-22T09:07:51;22.90;1.00
13673;DHT22;6909;52.202;9.876;2023-06-22T09:10:21;23.00;1.00
13673;DHT22;6909;52.202;9.876;2023-06-22T09:12:48;23.20;1.00
13673;DHT22;6909;52.202;9.876;2023-06-22T09:15:14;23.30;1.00
13673;DHT22;6909;52.202;9.876;2023-06-22T09:17:41;23.80;1.00
13673;DHT22;6909;52.202;9.876;2023-06-22T09:20:09;23.90;1.00
13673;DHT22;6909;52.202;9.876;2023-06-22T09:22:36;24.10;1.00
13673;DHT22;6909;52.202;9.876;2023-06-22T09:25:04;24.00;1.00
13673;DHT22;6909;52.202;9.876;2023-06-22T09:27:32;23.90;1.00
13673;DHT22;6909;52.202;9.876;2023-06-22T09:29:58;23.90;99.90
13673;DHT22;6909;52.202;9.876;2023-06-22T09:32:25;23.70;99.90
13673;DHT22;6909;52.202;9.876;2023-06-22T09:34:52;23.30;99.90
13673;DHT22;6909;52.202;9.876;2023-06-22T09:37:19;23.30;99.90
13673;DHT22;6909;52.202;9.876;2023-06-22T09:39:45;23.50;99.90
13673;DHT22;6909;52.202;9.876;2023-06-22T09:42:12;23.80;99.90
13673;DHT22;6909;52.202;9.876;2023-06-22T09:44:41;23.90;99.90
13673;DHT22;6909;52.202;9.876;2023-06-22T09:47:07;23.90;99.90
13673;DHT22;6909;52.202;9.876;2023-06-22T09:49:34;24.30;99.90
13673;DHT22;6909;52.202;9.876;2023-06-22T09:52:01;24.40;99.90
13673;DHT22;6909;52.202;9.876;2023-06-22T09:54:28;24.10;55.60
13673;DHT22;6909;52.202;9.876;2023-06-22T09:56:54;24.20;43.50
13673;DHT22;6909;52.202;9.876;2023-06-22T09:59:21;24.10;20.90
13673;DHT22;6909;52.202;9.876;2023-06-22T10:01:49;24.10;29.40
13673;DHT22;6909;52.202;9.876;2023-06-22T10:04:16;24.40;27.10
13673;DHT22;6909;52.202;9.876;2023-06-22T10:06:42;24.30;1.00
13673;DHT22;6909;52.202;9.876;2023-06-22T10:09:09;24.70;1.00
13673;DHT22;6909;52.202;9.876;2023-06-22T10:11:36;24.90;1.00
13673;DHT22;6909;52.202;9.876;2023-06-22T10:14:02;25.00;1.00
13673;DHT22;6909;52.202;9.876;2023-06-22T10:16:33;25.20;1.00
13673;DHT22;6909;52.202;9.876;2023-06-22T10:19:02;25.60;1.00
13673;DHT22;6909;52.202;9.876;2023-06-22T10:21:29;25.30;1.00
13673;DHT22;6909;52.202;9.876;2023-06-22T10:23:56;24.90;1.00
13673;DHT22;6909;52.202;9.876;2023-06-22T10:26:22;24.70;1.00
13673;DHT22;6909;52.202;9.876;2023-06-22T10:28:50;25.10;1.00
13673;DHT22;6909;52.202;9.876;2023-06-22T10:31:16;25.00;1.00
13673;DHT22;6909;52.202;9.876;2023-06-22T10:33:43;24.90;1.00
13673;DHT22;6909;52.202;9.876;2023-06-22T10:36:12;24.90;1.00
13673;DHT22;6909;52.202;9.876;2023-06-22T10:38:38;25.10;1.00
13673;DHT22;6909;52.202;9.876;2023-06-22T10:41:05;25.30;1.00
13673;DHT22;6909;52.202;9.876;2023-06-22T10:43:32;25.30;1.00
13673;DHT22;6909;52.202;9.876;2023-06-22T10:45:58;25.40;1.00
13673;DHT22;6909;52.202;9.876;2023-06-22T10:48:25;25.30;1.00
13673;DHT22;6909;52.202;9.876;2023-06-22T10:50:52;25.00;1.00
13673;DHT22;6909;52.202;9.876;2023-06-22T10:53:21;24.90;1.00
13673;DHT22;6909;52.202;9.876;2023-06-22T10:55:48;25.20;1.00
13673;DHT22;6909;52.202;9.876;2023-06-22T10:58:14;25.00;1.00
13673;DHT22;6909;52.202;9.876;2023-06-22T11:00:41;25.00;1.00
13673;DHT22;6909;52.202;9.876;2023-06-22T11:03:08;25.00;1.00
13673;DHT22;6909;52.202;9.876;2023-06-22T11:05:34;24.80;1.00
13673;DHT22;6909;52.202;9.876;2023-06-22T11:08:01;25.00;1.00
13673;DHT22;6909;52.202;9.876;2023-06-22T11:10:29;25.60;1.00
13673;DHT22;6909;52.202;9.876;2023-06-22T11:12:56;25.80;1.00
13673;DHT22;6909;52.202;9.876;2023-06-22T11:15:23;26.30;1.00
13673;DHT22;6909;52.202;9.876;2023-06-22T11:17:50;26.40;1.00
13673;DHT22;6909;52.202;9.876;2023-06-22T11:20:17;26.50;99.90
13673;DHT22;6909;52.202;9.876;2023-06-22T11:22:43;26.80;99.90
13673;DHT22;6909;52.202;9.876;2023-06-22T11:25:10;27.00;99.90
13673;DHT22;6909;52.202;9.876;2023-06-22T11:27:39;26.30;99.90
13673;DHT22;6909;52.202;9.876;2023-06-22T11:30:07;26.30;99.90
13673;DHT22;6909;52.202;9.876;2023-06-22T11:32:34;25.70;99.90
13673;DHT22;6909;52.202;9.876;2023-06-22T11:35:01;25.90;99.90
13673;DHT22;6909;52.202;9.876;2023-06-22T11:37:28;25.70;99.90
13673;DHT22;6909;52.202;9.876;2023-06-22T11:39:54;25.90;99.90
13673;DHT22;6909;52.202;9.876;2023-06-22T11:42:21;25.80;99.90
13673;DHT22;6909;52.202;9.876;2023-06-22T11:44:51;25.80;99.90
13673;DHT22;6909;52.202;9.876;2023-06-22T11:47:18;26.20;99.90
13673;DHT22;6909;52.202;9.876;2023-06-22T11:49:44;26.40;99.90
13673;DHT22;6909;52.202;9.876;2023-06-22T11:52:11;26.30;99.90
13673;DHT22;6909;52.202;9.876;2023-06-22T11:54:38;26.10;99.90
13673;DHT22;6909;52.202;9.876;2023-06-22T11:57:05;26.00;99.90
13673;DHT22;6909;52.202;9.876;2023-06-22T11:59:31;26.20;99.90
13673;DHT22;6909;52.202;9.876;2023-06-22T12:02:00;26.40;99.90
13673;DHT22;6909;52.202;9.876;2023-06-22T12:04:26;26.80;99.90
13673;DHT22;6909;52.202;9.876;2023-06-22T12:06:53;26.80;98.10
13673;DHT22;6909;52.202;9.876;2023-06-22T12:09:20;27.10;60.90
13673;DHT22;6909;52.202;9.876;2023-06-22T12:11:46;27.40;5.00
13673;DHT22;6909;52.202;9.876;2023-06-22T12:14:13;27.30;1.00
13673;DHT22;6909;52.202;9.876;2023-06-22T12:16:40;27.50;1.00
13673;DHT22;6909;52.202;9.876;2023-06-22T12:19:08;27.90;1.00
13673;DHT22;6909;52.202;9.876;2023-06-22T12:21:34;28.00;1.00
13673;DHT22;6909;52.202;9.876;2023-06-22T12:24:01;28.20;1.00
13673;DHT22;6909;52.202;9.876;2023-06-22T12:26:28;28.00;1.00
13673;DHT22;6909;52.202;9.876;2023-06-22T12:28:55;27.80;1.00
13673;DHT22;6909;52.202;9.876;2023-06-22T12:31:22;27.70;1.00
13673;DHT22;6909;52.202;9.876;2023-06-22T12:33:48;27.30;1.00
13673;DHT22;6909;52.202;9.876;2023-06-22T12:36:16;27.30;1.00
13673;DHT22;6909;52.202;9.876;2023-06-22T12:38:43;27.30;1.00
13673;DHT22;6909;52.202;9.876;2023-06-22T12:41:10;27.40;1.00
13673;DHT22;6909;52.202;9.876;2023-06-22T12:43:36;27.30;1.00
13673;DHT22;6909;52.202;9.876;2023-06-22T12:46:03;27.40;1.00
13673;DHT22;6909;52.202;9.876;2023-06-22T12:48:30;27.30;1.00
13673;DHT22;6909;52.202;9.876;2023-06-22T12:50:56;27.30;1.00
13673;DHT22;6909;52.202;9.876;2023-06-22T12:53:24;27.20;1.00
13673;DHT22;6909;52.202;9.876;2023-06-22T12:55:52;27.40;1.00
13673;DHT22;6909;52.202;9.876;2023-06-22T12:58:19;27.40;1.00
13673;DHT22;6909;52.202;9.876;2023-06-22T13:00:46;27.60;1.00
13673;DHT22;6909;52.202;9.876;2023-06-22T13:03:12;27.70;1.00
13673;DHT22;6909;52.202;9.876;2023-06-22T13:05:39;27.50;1.00
13673;DHT22;6909;52.202;9.876;2023-06-22T13:08:06;27.50;1.00
13673;DHT22;6909;52.202;9.876;2023-06-22T13:10:34;27.60;1.00
13673;DHT22;6909;52.202;9.876;2023-06-22T13:13:01;27.50;1.00
13673;DHT22;6909;52.202;9.876;2023-06-22T13:15:28;27.30;1.00
13673;DHT22;6909;52.202;9.876;2023-06-22T13:17:55;27.40;1.00
13673;DHT22;6909;52.202;9.876;2023-06-22T13:20:22;27.40;1.00
13673;DHT22;6909;52.202;9.876;2023-06-22T13:22:48;27.40;1.00
13673;DHT22;6909;52.202;9.876;2023-06-22T13:25:15;27.30;99.90
13673;DHT22;6909;52.202;9.876;2023-06-22T13:27:46;27.30;99.90
13673;DHT22;6909;52.202;9.876;2023-06-22T13:30:13;27.40;99.90
13673;DHT22;6909;52.202;9.876;2023-06-22T13:32:40;27.10;99.90
13673;DHT22;6909;52.202;9.876;2023-06-22T13:35:08;27.10;99.90
13673;DHT22;6909;52.202;9.876;2023-06-22T13:37:35;27.00;99.90
13673;DHT22;6909;52.202;9.876;2023-06-22T13:40:02;27.00;99.90
13673;DHT22;6909;52.202;9.876;2023-06-22T13:42:30;27.00;99.90
13673;DHT22;6909;52.202;9.876;2023-06-22T13:44:59;26.90;99.90
13673;DHT22;6909;52.202;9.876;2023-06-22T13:47:25;26.80;99.90
13673;DHT22;6909;52.202;9.876;2023-06-22T13:49:52;26.80;99.90
13673;DHT22;6909;52.202;9.876;2023-06-22T13:52:19;26.60;99.90
13673;DHT22;6909;52.202;9.876;2023-06-22T13:54:45;26.10;99.90
13673;DHT22;6909;52.202;9.876;2023-06-22T13:57:12;25.70;1.00
13673;DHT22;6909;52.202;9.876;2023-06-22T13:59:39;25.50;1.00
13673;DHT22;6909;52.202;9.876;2023-06-22T14:02:07;25.50;1.00
13673;DHT22;6909;52.202;9.876;2023-06-22T14:04:34;25.40;1.00
13673;DHT22;6909;52.202;9.876;2023-06-22T14:07:00;25.30;1.00
13673;DHT22;6909;52.202;9.876;2023-06-22T14:09:27;25.20;1.00
13673;DHT22;6909;52.202;9.876;2023-06-22T14:11:54;25.10;1.00
13673;DHT22;6909;52.202;9.876;2023-06-22T14:14:21;25.10;1.00
13673;DHT22;6909;52.202;9.876;2023-06-22T14:16:48;25.20;1.00
13673;DHT22;6909;52.202;9.876;2023-06-22T14:19:18;25.30;1.00
13673;DHT22;6909;52.202;9.876;2023-06-22T14:21:44;25.40;1.00
13673;DHT22;6909;52.202;9.876;2023-06-22T14:24:11;25.50;1.00
13673;DHT22;6909;52.202;9.876;2023-06-22T14:26:38;25.50;1.00
13673;DHT22;6909;52.202;9.876;2023-06-22T14:29:05;25.60;1.00
13673;DHT22;6909;52.202;9.876;2023-06-22T14:31:32;25.70;1.00
13673;DHT22;6909;52.202;9.876;2023-06-22T14:33:59;25.80;1.00
13673;DHT22;6909;52.202;9.876;2023-06-22T14:36:27;25.90;1.00
13673;DHT22;6909;52.202;9.876;2023-06-22T14:38:54;26.00;1.00
13673;DHT22;6909;52.202;9.876;2023-06-22T14:41:21;26.10;1.00
13673;DHT22;6909;52.202;9.876;2023-06-22T14:43:48;26.30;1.00
13673;DHT22;6909;52.202;9.876;2023-06-22T14:46:16;26.20;1.00
13673;DHT22;6909;52.202;9.876;2023-06-22T14:48:43;26.20;1.00
13673;DHT22;6909;52.202;9.876;2023-06-22T14:51:11;26.10;1.00
13673;DHT22;6909;52.202;9.876;2023-06-22T14:53:40;26.00;1.00
13673;DHT22;6909;52.202;9.876;2023-06-22T14:56:06;25.90;1.00
13673;DHT22;6909;52.202;9.876;2023-06-22T14:58:33;25.70;9.60
13673;DHT22;6909;52.202;9.876;2023-06-22T15:01:01;25.50;53.80
13673;DHT22;6909;52.202;9.876;2023-06-22T15:03:29;25.50;99.90
13673;DHT22;6909;52.202;9.876;2023-06-22T15:05:57;25.30;99.90
13673;DHT22;6909;52.202;9.876;2023-06-22T15:08:25;25.20;99.90
13673;DHT22;6909;52.202;9.876;2023-06-22T15:10:53;25.00;99.90
13673;DHT22;6909;52.202;9.876;2023-06-22T15:13:21;24.80;99.90
13673;DHT22;6909;52.202;9.876;2023-06-22T15:15:48;24.80;99.90
13673;DHT22;6909;52.202;9.876;2023-06-22T15:18:15;24.70;99.90
13673;DHT22;6909;52.202;9.876;2023-06-22T15:20:43;24.70;99.90
13673;DHT22;6909;52.202;9.876;2023-06-22T15:23:11;24.60;1.00
13673;DHT22;6909;52.202;9.876;2023-06-22T15:25:38;24.40;1.00
13673;DHT22;6909;52.202;9.876;2023-06-22T15:28:06;24.30;1.00
13673;DHT22;6909;52.202;9.876;2023-06-22T15:30:33;24.00;99.90
13673;DHT22;6909;52.202;9.876;2023-06-22T15:33:00;23.30;1.00
13673;DHT22;6909;52.202;9.876;2023-06-22T15:35:27;22.90;99.90
13673;DHT22;6909;52.202;9.876;2023-06-22T15:37:54;22.50;1.00
13673;DHT22;6909;52.202;9.876;2023-06-22T15:40:21;21.40;99.90
13673;DHT22;6909;52.202;9.876;2023-06-22T15:42:49;20.60;99.90
13673;DHT22;6909;52.202;9.876;2023-06-22T15:45:18;19.50;99.90
13673;DHT22;6909;52.202;9.876;2023-06-22T15:47:44;18.90;99.90
13673;DHT22;6909;52.202;9.876;2023-06-22T15:50:11;18.80;99.90
13673;DHT22;6909;52.202;9.876;2023-06-22T15:52:39;19.00;99.90